ZNA weather

Nanaimo Harbour Water Airport
Nanaimo, British Columbia, Canada

Public forecast

Using degrees Celsius for public forecast. Weather courtesy of forecast.io.

METAR (pilot weather report)

Closest report is Nanaimo Airport, 8.3 nm (15.4 km) SSE. Retrieved 2019/09/23 04:00 UTC (8 minutes ago):

CYCD 230400Z 29004KT 15SM FEW020 SCT060 13/12 A2993 RMK SC1SC2 LAST STFD OBS/NEXT 231300Z SLP136

TAF (pilot weather forecast)

Forecast is more than 12 hours old.

Closest forecast is Nanaimo Airport, 8.3 nm (15.4 km) SSE. Retrieved 2019/09/22 00:00 UTC (1 day ago):

TAF CYCD 222338Z 2300/2304 VRB03KT 2SM -RA BR BKN005 BKN015 TEMPO 2300/2304 6SM -RA SCT005 BKN025 RMK NXT FCST WILL BE ISSUED AT 231445Z